TimeMDT,TemperatureF,Dew PointF,Humidity,Sea Level PressureIn,VisibilityMPH,Wind Direction,Wind SpeedMPH,Gust SpeedMPH,PrecipitationIn,Events,Conditions,WindDirDegrees,DateUTC
12:55 AM,71.1,62.1,73,29.99,10.0,East,3.5,-,N/A,,Clear,80,2013-09-05 06:55:00
1:55 AM,69.1,62.1,78,29.97,10.0,ENE,6.9,-,N/A,,Clear,70,2013-09-05 07:55:00
2:55 AM,69.1,62.1,78,29.96,10.0,East,4.6,-,N/A,,Clear,80,2013-09-05 08:55:00
3:55 AM,70.0,62.1,76,30.01,10.0,NW,8.1,-,N/A,,Partly Cloudy,320,2013-09-05 09:55:00
4:09 AM,71.6,62.6,73,30.10,10.0,North,15.0,25.3,N/A,Thunderstorm,Scattered Clouds,350,2013-09-05 10:09:00
4:55 AM,70.0,64.0,81,30.02,10.0,North,6.9,17.3,N/A,Thunderstorm,Clear,360,2013-09-05 10:55:00
5:05 AM,69.8,64.4,83,30.10,10.0,NNE,5.8,-,N/A,,Clear,20,2013-09-05 11:05:00
5:55 AM,70.0,64.0,81,30.01,10.0,ESE,5.8,-,N/A,,Clear,110,2013-09-05 11:55:00
6:55 AM,69.1,64.0,84,30.01,10.0,East,9.2,-,N/A,,Clear,100,2013-09-05 12:55:00
7:55 AM,70.0,64.0,81,30.03,10.0,NE,4.6,-,N/A,,Clear,50,2013-09-05 13:55:00
8:55 AM,72.0,63.0,73,30.02,10.0,East,6.9,-,N/A,,Clear,90,2013-09-05 14:55:00
9:55 AM,79.0,64.0,60,30.01,10.0,ESE,4.6,-,N/A,,Clear,120,2013-09-05 15:55:00
10:55 AM,84.0,63.0,49,30.01,10.0,SSE,10.4,-,N/A,,Clear,150,2013-09-05 16:55:00
11:55 AM,88.0,61.0,40,30.00,10.0,ESE,6.9,-,N/A,,Clear,120,2013-09-05 17:55:00
12:55 PM,93.0,60.1,33,29.96,10.0,ESE,11.5,18.4,N/A,,Clear,120,2013-09-05 18:55:00
1:55 PM,95.0,57.9,29,29.94,10.0,ESE,11.5,17.3,N/A,,Clear,120,2013-09-05 19:55:00
2:55 PM,96.1,59.0,29,29.92,10.0,Variable,6.9,21.9,N/A,,Clear,0,2013-09-05 20:55:00
3:55 PM,97.0,59.0,28,29.91,10.0,Variable,5.8,19.6,N/A,,Clear,0,2013-09-05 21:55:00
4:55 PM,95.0,59.0,30,29.90,10.0,SE,6.9,-,N/A,,Clear,130,2013-09-05 22:55:00
5:55 PM,91.9,61.0,35,29.89,10.0,East,13.8,-,N/A,,Clear,90,2013-09-05 23:55:00
6:55 PM,88.0,62.1,42,29.88,10.0,East,11.5,-,N/A,,Clear,90,2013-09-06 00:55:00
7:55 PM,84.0,64.9,53,29.89,10.0,East,11.5,-,N/A,,Clear,90,2013-09-06 01:55:00
8:55 PM,80.1,64.9,60,29.89,10.0,ENE,8.1,-,N/A,,Clear,70,2013-09-06 02:55:00
9:55 PM,77.0,64.9,66,29.88,10.0,East,6.9,-,N/A,,Clear,80,2013-09-06 03:55:00
10:55 PM,73.0,64.0,73,29.87,10.0,East,4.6,-,N/A,,Clear,80,2013-09-06 04:55:00
11:55 PM,73.0,64.0,73,29.86,10.0,ENE,3.5,-,N/A,,Clear,70,2013-09-06 05:55:00